sensor_id;sensor_type;location;lat;lon;timestamp;pressure;altitude;pressure_sealevel;temperature;humidity
34177;BME280;20450;49.074;9.158;2023-01-31T00:11:01;100720.28;;;4.16;81.05
34177;BME280;20450;49.074;9.158;2023-01-31T00:13:28;100723.09;;;4.15;81.22
34177;BME280;20450;49.074;9.158;2023-01-31T00:15:56;100714.53;;;4.11;81.24
34177;BME280;20450;49.074;9.158;2023-01-31T00:18:24;100718.75;;;4.14;81.36
34177;BME280;20450;49.074;9.158;2023-01-31T00:20:52;100723.41;;;4.12;81.42
34177;BME280;20450;49.074;9.158;2023-01-31T00:23:19;100717.09;;;4.03;81.70
34177;BME280;20450;49.074;9.158;2023-01-31T00:25:47;100724.69;;;4.07;81.49
34177;BME280;20450;49.074;9.158;2023-01-31T00:28:14;100721.59;;;4.02;82.03
34177;BME280;20450;49.074;9.158;2023-01-31T00:30:41;100705.84;;;3.99;81.94
34177;BME280;20450;49.074;9.158;2023-01-31T00:33:08;100712.88;;;4.00;81.91
34177;BME280;20450;49.074;9.158;2023-01-31T00:35:38;100716.41;;;4.01;82.07
34177;BME280;20450;49.074;9.158;2023-01-31T00:38:05;100715.69;;;3.99;81.94
34177;BME280;20450;49.074;9.158;2023-01-31T00:40:32;100716.56;;;3.99;81.71
34177;BME280;20450;49.074;9.158;2023-01-31T00:43:01;100712.88;;;4.00;81.66
34177;BME280;20450;49.074;9.158;2023-01-31T00:45:28;100707.97;;;3.96;81.72
34177;BME280;20450;49.074;9.158;2023-01-31T00:47:55;100703.19;;;3.99;81.93
34177;BME280;20450;49.074;9.158;2023-01-31T00:50:22;100703.19;;;3.99;82.20
34177;BME280;20450;49.074;9.158;2023-01-31T00:52:49;100709.25;;;4.01;81.22
34177;BME280;20450;49.074;9.158;2023-01-31T00:55:16;100714.59;;;4.01;81.23
34177;BME280;20450;49.074;9.158;2023-01-31T00:57:44;100727.53;;;3.96;81.24
34177;BME280;20450;49.074;9.158;2023-01-31T01:00:13;100732.59;;;3.99;81.35
34177;BME280;20450;49.074;9.158;2023-01-31T01:02:41;100740.75;;;3.98;81.41
34177;BME280;20450;49.074;9.158;2023-01-31T01:05:15;100729.50;;;3.94;81.71
34177;BME280;20450;49.074;9.158;2023-01-31T01:07:54;100731.66;;;3.91;81.40
34177;BME280;20450;49.074;9.158;2023-01-31T01:10:25;100733.59;;;3.98;81.95
34177;BME280;20450;49.074;9.158;2023-01-31T01:12:53;100717.28;;;3.92;81.48
34177;BME280;20450;49.074;9.158;2023-01-31T01:15:21;100731.19;;;3.95;81.50
34177;BME280;20450;49.074;9.158;2023-01-31T01:17:48;100726.16;;;3.92;81.96
34177;BME280;20450;49.074;9.158;2023-01-31T01:20:18;100727.41;;;3.88;81.68
34177;BME280;20450;49.074;9.158;2023-01-31T01:22:45;100726.72;;;3.86;81.74
34177;BME280;20450;49.074;9.158;2023-01-31T01:25:12;100723.34;;;3.84;81.97
34177;BME280;20450;49.074;9.158;2023-01-31T01:27:39;100722.50;;;3.84;82.53
34177;BME280;20450;49.074;9.158;2023-01-31T01:30:07;100727.69;;;3.85;82.06
34177;BME280;20450;49.074;9.158;2023-01-31T01:32:36;100729.56;;;3.85;82.42
34177;BME280;20450;49.074;9.158;2023-01-31T01:35:04;100729.69;;;3.83;82.40
34177;BME280;20450;49.074;9.158;2023-01-31T01:37:32;100721.69;;;3.83;82.14
34177;BME280;20450;49.074;9.158;2023-01-31T01:39:59;100721.69;;;3.83;82.30
34177;BME280;20450;49.074;9.158;2023-01-31T01:42:33;100738.69;;;3.82;82.25
34177;BME280;20450;49.074;9.158;2023-01-31T01:45:02;100745.31;;;3.78;82.35
34177;BME280;20450;49.074;9.158;2023-01-31T01:47:38;100743.63;;;3.77;82.73
34177;BME280;20450;49.074;9.158;2023-01-31T01:50:13;100750.50;;;3.80;82.44
34177;BME280;20450;49.074;9.158;2023-01-31T01:52:47;100745.16;;;3.80;82.71
34177;BME280;20450;49.074;9.158;2023-01-31T01:55:21;100746.31;;;3.77;83.15
34177;BME280;20450;49.074;9.158;2023-01-31T01:57:55;100746.47;;;3.76;82.59
34177;BME280;20450;49.074;9.158;2023-01-31T02:00:28;100734.63;;;3.78;82.65
34177;BME280;20450;49.074;9.158;2023-01-31T02:03:02;100738.59;;;3.74;82.71
34177;BME280;20450;49.074;9.158;2023-01-31T02:05:34;100739.00;;;3.70;82.85
34177;BME280;20450;49.074;9.158;2023-01-31T02:08:04;100735.50;;;3.69;83.40
34177;BME280;20450;49.074;9.158;2023-01-31T02:10:35;100744.50;;;3.68;83.06
34177;BME280;20450;49.074;9.158;2023-01-31T02:13:08;100746.19;;;3.69;83.53
34177;BME280;20450;49.074;9.158;2023-01-31T02:15:37;100749.56;;;3.71;83.01
34177;BME280;20450;49.074;9.158;2023-01-31T02:18:07;100752.63;;;3.76;82.83
34177;BME280;20450;49.074;9.158;2023-01-31T02:20:53;100759.81;;;3.76;83.19
34177;BME280;20450;49.074;9.158;2023-01-31T02:24:03;100753.31;;;3.78;82.85
34177;BME280;20450;49.074;9.158;2023-01-31T02:27:09;100755.72;;;3.81;82.55
34177;BME280;20450;49.074;9.158;2023-01-31T02:30:06;100770.75;;;3.82;83.28
34177;BME280;20450;49.074;9.158;2023-01-31T02:33:02;100764.00;;;3.78;83.15
34177;BME280;20450;49.074;9.158;2023-01-31T02:35:48;100772.03;;;3.78;83.07
34177;BME280;20450;49.074;9.158;2023-01-31T02:38:38;100770.88;;;3.81;83.36
34177;BME280;20450;49.074;9.158;2023-01-31T02:41:17;100773.13;;;3.85;82.82
34177;BME280;20450;49.074;9.158;2023-01-31T02:43:56;100774.69;;;3.88;83.01
34177;BME280;20450;49.074;9.158;2023-01-31T02:46:33;100769.50;;;3.86;83.03
34177;BME280;20450;49.074;9.158;2023-01-31T02:49:16;100772.44;;;3.83;83.14
34177;BME280;20450;49.074;9.158;2023-01-31T02:51:48;100770.88;;;3.81;83.12
34177;BME280;20450;49.074;9.158;2023-01-31T02:54:22;100782.00;;;3.76;83.35
34177;BME280;20450;49.074;9.158;2023-01-31T02:56:53;100786.69;;;3.74;83.63
34177;BME280;20450;49.074;9.158;2023-01-31T02:59:23;100782.63;;;3.70;83.23
34177;BME280;20450;49.074;9.158;2023-01-31T03:01:56;100777.94;;;3.72;83.62
34177;BME280;20450;49.074;9.158;2023-01-31T03:04:31;100776.81;;;3.75;83.79
34177;BME280;20450;49.074;9.158;2023-01-31T03:07:04;100773.47;;;3.73;83.88
34177;BME280;20450;49.074;9.158;2023-01-31T03:09:46;100778.94;;;3.71;83.79
34177;BME280;20450;49.074;9.158;2023-01-31T03:12:35;100772.22;;;3.67;83.85
34177;BME280;20450;49.074;9.158;2023-01-31T03:15:25;100777.41;;;3.69;83.52
34177;BME280;20450;49.074;9.158;2023-01-31T03:18:05;100784.44;;;3.70;83.55
34177;BME280;20450;49.074;9.158;2023-01-31T03:20:43;100781.19;;;3.66;83.75
34177;BME280;20450;49.074;9.158;2023-01-31T03:23:21;100779.66;;;3.64;84.08
34177;BME280;20450;49.074;9.158;2023-01-31T03:25:51;100774.19;;;3.65;83.83
34177;BME280;20450;49.074;9.158;2023-01-31T03:28:22;100778.81;;;3.63;83.61
34177;BME280;20450;49.074;9.158;2023-01-31T03:30:58;100778.81;;;3.63;84.11
34177;BME280;20450;49.074;9.158;2023-01-31T03:33:32;100782.47;;;3.62;84.01
34177;BME280;20450;49.074;9.158;2023-01-31T03:36:10;100787.81;;;3.62;84.20
34177;BME280;20450;49.074;9.158;2023-01-31T03:38:56;100785.00;;;3.64;84.21
34177;BME280;20450;49.074;9.158;2023-01-31T03:41:42;100792.88;;;3.65;83.61
34177;BME280;20450;49.074;9.158;2023-01-31T03:44:22;100788.53;;;3.64;83.73
34177;BME280;20450;49.074;9.158;2023-01-31T03:47:02;100789.50;;;3.63;83.86
34177;BME280;20450;49.074;9.158;2023-01-31T03:49:33;100786.00;;;3.63;83.50
34177;BME280;20450;49.074;9.158;2023-01-31T03:52:04;100799.50;;;3.61;83.83
34177;BME280;20450;49.074;9.158;2023-01-31T03:54:39;100796.69;;;3.63;83.62
34177;BME280;20450;49.074;9.158;2023-01-31T03:57:16;100798.66;;;3.61;83.89
34177;BME280;20450;49.074;9.158;2023-01-31T03:59:49;100805.13;;;3.58;83.72
34177;BME280;20450;49.074;9.158;2023-01-31T04:02:26;100795.41;;;3.57;83.72
34177;BME280;20450;49.074;9.158;2023-01-31T04:05:04;100814.09;;;3.57;84.19
34177;BME280;20450;49.074;9.158;2023-01-31T04:07:37;100810.75;;;3.55;83.59
34177;BME280;20450;49.074;9.158;2023-01-31T04:10:09;100813.44;;;3.55;83.55
34177;BME280;20450;49.074;9.158;2023-01-31T04:12:39;100812.84;;;3.52;84.09
34177;BME280;20450;49.074;9.158;2023-01-31T04:15:10;100821.59;;;3.54;83.85
34177;BME280;20450;49.074;9.158;2023-01-31T04:17:38;100814.38;;;3.54;83.76
34177;BME280;20450;49.074;9.158;2023-01-31T04:20:06;100821.59;;;3.54;84.08
34177;BME280;20450;49.074;9.158;2023-01-31T04:22:34;100826.22;;;3.52;84.01
34177;BME280;20450;49.074;9.158;2023-01-31T04:25:03;100830.16;;;3.48;84.14
34177;BME280;20450;49.074;9.158;2023-01-31T04:27:31;100838.16;;;3.48;83.64
34177;BME280;20450;49.074;9.158;2023-01-31T04:29:58;100827.19;;;3.41;84.23
34177;BME280;20450;49.074;9.158;2023-01-31T04:32:26;100828.47;;;3.37;84.00
34177;BME280;20450;49.074;9.158;2023-01-31T04:34:52;100823.97;;;3.28;84.62
34177;BME280;20450;49.074;9.158;2023-01-31T04:37:19;100828.44;;;3.28;84.34
34177;BME280;20450;49.074;9.158;2023-01-31T04:39:47;100821.84;;;3.22;84.88
34177;BME280;20450;49.074;9.158;2023-01-31T04:42:15;100818.59;;;3.19;84.37
34177;BME280;20450;49.074;9.158;2023-01-31T04:44:42;100821.13;;;3.20;84.15
34177;BME280;20450;49.074;9.158;2023-01-31T04:47:08;100815.78;;;3.20;84.14
34177;BME280;20450;49.074;9.158;2023-01-31T04:49:35;100823.25;;;3.17;84.43
34177;BME280;20450;49.074;9.158;2023-01-31T04:52:03;100818.47;;;3.11;84.62
34177;BME280;20450;49.074;9.158;2023-01-31T04:54:30;100816.50;;;3.13;84.40
34177;BME280;20450;49.074;9.158;2023-01-31T04:56:57;100812.28;;;3.10;84.12
34177;BME280;20450;49.074;9.158;2023-01-31T04:59:25;100808.91;;;3.08;84.53
34177;BME280;20450;49.074;9.158;2023-01-31T05:01:52;100810.31;;;3.03;83.98
34177;BME280;20450;49.074;9.158;2023-01-31T05:04:19;100806.63;;;2.75;84.94
34177;BME280;20450;49.074;9.158;2023-01-31T05:06:46;100803.50;;;2.70;85.48
34177;BME280;20450;49.074;9.158;2023-01-31T05:09:13;100803.81;;;2.77;85.38
34177;BME280;20450;49.074;9.158;2023-01-31T05:11:40;100809.44;;;2.74;85.13
34177;BME280;20450;49.074;9.158;2023-01-31T05:14:08;100794.97;;;2.76;85.25
34177;BME280;20450;49.074;9.158;2023-01-31T05:16:36;100807.03;;;2.80;84.55
34177;BME280;20450;49.074;9.158;2023-01-31T05:19:04;100807.44;;;2.76;84.23
34177;BME280;20450;49.074;9.158;2023-01-31T05:21:31;100800.44;;;2.75;84.69
34177;BME280;20450;49.074;9.158;2023-01-31T05:23:58;100788.22;;;2.72;84.47
34177;BME280;20450;49.074;9.158;2023-01-31T05:26:24;100791.72;;;2.63;84.54
34177;BME280;20450;49.074;9.158;2023-01-31T05:28:52;100798.94;;;2.42;84.86
34177;BME280;20450;49.074;9.158;2023-01-31T05:31:19;100792.00;;;2.30;85.18
34177;BME280;20450;49.074;9.158;2023-01-31T05:33:48;100791.81;;;2.13;85.75
34177;BME280;20450;49.074;9.158;2023-01-31T05:36:15;100796.09;;;2.04;86.01
34177;BME280;20450;49.074;9.158;2023-01-31T05:38:41;100796.44;;;1.90;86.96
34177;BME280;20450;49.074;9.158;2023-01-31T05:41:08;100808.84;;;2.00;86.77
34177;BME280;20450;49.074;9.158;2023-01-31T05:43:41;100804.81;;;2.06;87.10
34177;BME280;20450;49.074;9.158;2023-01-31T05:49:35;100810.31;;;2.14;87.49
34177;BME280;20450;49.074;9.158;2023-01-31T05:52:02;100796.59;;;2.19;87.43
34177;BME280;20450;49.074;9.158;2023-01-31T05:54:29;100799.81;;;2.22;86.96
34177;BME280;20450;49.074;9.158;2023-01-31T05:56:56;100800.81;;;2.21;87.30
34177;BME280;20450;49.074;9.158;2023-01-31T05:59:24;100802.34;;;2.24;86.89
34177;BME280;20450;49.074;9.158;2023-01-31T06:01:51;100799.81;;;2.22;86.95
34177;BME280;20450;49.074;9.158;2023-01-31T06:04:17;100803.66;;;2.29;87.21
34177;BME280;20450;49.074;9.158;2023-01-31T06:06:46;100808.44;;;2.35;86.96
34177;BME280;20450;49.074;9.158;2023-01-31T06:09:13;100806.75;;;2.34;86.65
34177;BME280;20450;49.074;9.158;2023-01-31T06:11:40;100806.75;;;2.34;86.82
34177;BME280;20450;49.074;9.158;2023-01-31T06:14:07;100815.16;;;2.30;86.78
34177;BME280;20450;49.074;9.158;2023-01-31T06:16:34;100818.75;;;2.19;87.52
34177;BME280;20450;49.074;9.158;2023-01-31T06:19:01;100819.06;;;2.26;87.72
34177;BME280;20450;49.074;9.158;2023-01-31T06:21:29;100824.53;;;2.24;87.52
34177;BME280;20450;49.074;9.158;2023-01-31T06:24:28;100830.84;;;2.23;87.53
34177;BME280;20450;49.074;9.158;2023-01-31T06:26:56;100825.31;;;2.15;87.61
34177;BME280;20450;49.074;9.158;2023-01-31T06:29:23;100834.88;;;2.18;88.10
34177;BME280;20450;49.074;9.158;2023-01-31T06:31:56;100835.25;;;2.13;88.19
34177;BME280;20450;49.074;9.158;2023-01-31T06:34:23;100827.09;;;2.05;88.36
34177;BME280;20450;49.074;9.158;2023-01-31T06:36:50;100832.19;;;2.08;88.08
34177;BME280;20450;49.074;9.158;2023-01-31T06:39:16;100821.19;;;2.01;88.16
34177;BME280;20450;49.074;9.158;2023-01-31T06:41:45;100825.09;;;1.97;88.25
34177;BME280;20450;49.074;9.158;2023-01-31T06:44:11;100831.72;;;2.03;87.80
34177;BME280;20450;49.074;9.158;2023-01-31T06:46:38;100828.91;;;2.04;87.82
34177;BME280;20450;49.074;9.158;2023-01-31T06:49:05;100834.63;;;2.00;87.28
34177;BME280;20450;49.074;9.158;2023-01-31T06:51:32;100835.94;;;2.05;87.23
34177;BME280;20450;49.074;9.158;2023-01-31T06:53:59;100838.72;;;2.04;87.14
34177;BME280;20450;49.074;9.158;2023-01-31T06:56:26;100845.38;;;2.10;86.95
34177;BME280;20450;49.074;9.158;2023-01-31T06:58:54;100845.94;;;2.13;86.49
34177;BME280;20450;49.074;9.158;2023-01-31T07:01:21;100837.81;;;2.15;86.65
34177;BME280;20450;49.074;9.158;2023-01-31T07:03:48;100853.13;;;2.22;86.61
34177;BME280;20450;49.074;9.158;2023-01-31T07:06:15;100846.31;;;2.29;86.31
34177;BME280;20450;49.074;9.158;2023-01-31T07:08:42;100847.47;;;2.36;86.48
34177;BME280;20450;49.074;9.158;2023-01-31T07:11:13;100847.22;;;2.49;86.38
34177;BME280;20450;49.074;9.158;2023-01-31T07:13:40;100844.59;;;2.58;85.69
34177;BME280;20450;49.074;9.158;2023-01-31T07:16:08;100838.06;;;2.81;85.48
34177;BME280;20450;49.074;9.158;2023-01-31T07:18:35;100837.56;;;3.06;83.94
34177;BME280;20450;49.074;9.158;2023-01-31T07:21:03;100842.22;;;3.42;82.53
34177;BME280;20450;49.074;9.158;2023-01-31T07:23:29;100842.94;;;3.63;81.96
34177;BME280;20450;49.074;9.158;2023-01-31T07:25:56;100851.78;;;3.73;81.48
34177;BME280;20450;49.074;9.158;2023-01-31T07:28:23;100844.91;;;3.61;81.14
34177;BME280;20450;49.074;9.158;2023-01-31T07:30:50;100849.13;;;3.45;81.25
34177;BME280;20450;49.074;9.158;2023-01-31T07:33:19;100854.19;;;3.38;81.76
34177;BME280;20450;49.074;9.158;2023-01-31T07:35:46;100846.28;;;3.27;82.06
34177;BME280;20450;49.074;9.158;2023-01-31T07:38:13;100854.69;;;3.04;82.73
34177;BME280;20450;49.074;9.158;2023-01-31T07:40:40;100860.16;;;3.02;83.52
34177;BME280;20450;49.074;9.158;2023-01-31T07:43:06;100863.41;;;3.06;83.46
34177;BME280;20450;49.074;9.158;2023-01-31T07:45:33;100858.94;;;3.16;83.01
34177;BME280;20450;49.074;9.158;2023-01-31T07:48:01;100866.66;;;3.19;83.06
34177;BME280;20450;49.074;9.158;2023-01-31T07:50:29;100873.84;;;3.18;82.35
34177;BME280;20450;49.074;9.158;2023-01-31T07:52:56;100870.72;;;3.13;82.64
34177;BME280;20450;49.074;9.158;2023-01-31T07:55:24;100874.25;;;3.23;82.35
34177;BME280;20450;49.074;9.158;2023-01-31T07:57:51;100873.44;;;3.32;82.30
34177;BME280;20450;49.074;9.158;2023-01-31T08:00:19;100878.34;;;3.37;82.14
34177;BME280;20450;49.074;9.158;2023-01-31T08:02:46;100875.25;;;3.41;81.68
34177;BME280;20450;49.074;9.158;2023-01-31T08:05:14;100893.69;;;3.54;81.66
34177;BME280;20450;49.074;9.158;2023-01-31T08:07:42;100891.59;;;3.67;81.63
34177;BME280;20450;49.074;9.158;2023-01-31T08:10:10;100893.69;;;3.73;81.13
34177;BME280;20450;49.074;9.158;2023-01-31T08:12:37;100889.88;;;3.47;81.39
34177;BME280;20450;49.074;9.158;2023-01-31T08:15:04;100891.16;;;3.52;81.61
34177;BME280;20450;49.074;9.158;2023-01-31T08:17:32;100893.97;;;3.60;80.99
34177;BME280;20450;49.074;9.158;2023-01-31T08:19:59;100888.91;;;3.67;80.82
34177;BME280;20450;49.074;9.158;2023-01-31T08:22:26;100894.94;;;3.78;80.92
34177;BME280;20450;49.074;9.158;2023-01-31T08:24:54;100882.41;;;3.88;80.67
34177;BME280;20450;49.074;9.158;2023-01-31T08:27:21;100891.28;;;3.98;80.74
34177;BME280;20450;49.074;9.158;2023-01-31T08:29:48;100875.78;;;4.02;80.77
34177;BME280;20450;49.074;9.158;2023-01-31T08:32:15;100877.06;;;3.98;80.61
34177;BME280;20450;49.074;9.158;2023-01-31T08:34:42;100874.69;;;3.95;80.30
34177;BME280;20450;49.074;9.158;2023-01-31T08:37:09;100879.31;;;4.02;80.97
34177;BME280;20450;49.074;9.158;2023-01-31T08:39:36;100878.59;;;4.10;80.94
34177;BME280;20450;49.074;9.158;2023-01-31T08:42:04;100874.41;;;4.07;80.66
34177;BME280;20450;49.074;9.158;2023-01-31T08:44:31;100878.19;;;4.05;80.86
34177;BME280;20450;49.074;9.158;2023-01-31T08:46:58;100875.06;;;4.09;81.35
34177;BME280;20450;49.074;9.158;2023-01-31T08:49:25;100875.94;;;4.10;80.59
34177;BME280;20450;49.074;9.158;2023-01-31T08:51:52;100885.34;;;4.14;79.98
34177;BME280;20450;49.074;9.158;2023-01-31T08:54:19;100881.53;;;4.26;80.19
34177;BME280;20450;49.074;9.158;2023-01-31T08:56:46;100877.97;;;4.45;81.05
34177;BME280;20450;49.074;9.158;2023-01-31T09:04:13;100871.44;;;4.84;78.56
34177;BME280;20450;49.074;9.158;2023-01-31T09:06:50;100880.63;;;4.81;77.54
34177;BME280;20450;49.074;9.158;2023-01-31T09:09:17;100886.75;;;4.91;78.09
34177;BME280;20450;49.074;9.158;2023-01-31T09:11:43;100876.34;;;4.88;77.02
34177;BME280;20450;49.074;9.158;2023-01-31T09:14:10;100875.81;;;4.85;77.07
34177;BME280;20450;49.074;9.158;2023-01-31T09:16:39;100884.00;;;4.83;77.51
34177;BME280;20450;49.074;9.158;2023-01-31T09:19:08;100860.44;;;4.87;77.85
34177;BME280;20450;49.074;9.158;2023-01-31T09:21:35;100856.19;;;4.94;77.03
34177;BME280;20450;49.074;9.158;2023-01-31T09:24:02;100857.72;;;4.96;76.77
34177;BME280;20450;49.074;9.158;2023-01-31T09:26:30;100859.94;;;5.01;76.42
34177;BME280;20450;49.074;9.158;2023-01-31T09:28:57;100850.91;;;5.02;76.02
34177;BME280;20450;49.074;9.158;2023-01-31T09:31:24;100859.78;;;5.02;76.20
34177;BME280;20450;49.074;9.158;2023-01-31T09:33:53;100858.28;;;5.00;76.36
34177;BME280;20450;49.074;9.158;2023-01-31T09:36:21;100857.16;;;4.93;75.88
34177;BME280;20450;49.074;9.158;2023-01-31T09:38:52;100862.06;;;4.97;75.65
34177;BME280;20450;49.074;9.158;2023-01-31T09:41:25;100866.00;;;5.03;76.15
34177;BME280;20450;49.074;9.158;2023-01-31T09:44:02;100856.44;;;5.18;77.24
34177;BME280;20450;49.074;9.158;2023-01-31T09:46:35;100859.91;;;5.28;75.37
34177;BME280;20450;49.074;9.158;2023-01-31T09:49:09;100868.63;;;5.30;75.11
34177;BME280;20450;49.074;9.158;2023-01-31T09:51:43;100873.91;;;5.22;75.16
34177;BME280;20450;49.074;9.158;2023-01-31T09:54:24;100868.94;;;5.27;74.81
34177;BME280;20450;49.074;9.158;2023-01-31T09:57:12;100862.50;;;5.20;74.61
34177;BME280;20450;49.074;9.158;2023-01-31T09:59:58;100875.34;;;5.16;74.45
34177;BME280;20450;49.074;9.158;2023-01-31T10:02:59;100863.72;;;5.25;74.51
34177;BME280;20450;49.074;9.158;2023-01-31T10:05:48;100857.47;;;5.34;74.08
34177;BME280;20450;49.074;9.158;2023-01-31T10:08:29;100856.09;;;5.30;73.51
34177;BME280;20450;49.074;9.158;2023-01-31T10:11:10;100847.13;;;5.39;73.52
34177;BME280;20450;49.074;9.158;2023-01-31T10:13:49;100856.19;;;5.38;73.30
34177;BME280;20450;49.074;9.158;2023-01-31T10:16:26;100850.13;;;5.54;73.10
34177;BME280;20450;49.074;9.158;2023-01-31T10:19:02;100861.06;;;5.78;72.74
34177;BME280;20450;49.074;9.158;2023-01-31T10:21:39;100863.28;;;5.65;72.69
34177;BME280;20450;49.074;9.158;2023-01-31T10:24:16;100853.41;;;6.00;71.64
34177;BME280;20450;49.074;9.158;2023-01-31T10:26:50;100855.81;;;5.86;71.27
34177;BME280;20450;49.074;9.158;2023-01-31T10:29:25;100857.69;;;5.58;71.52
34177;BME280;20450;49.074;9.158;2023-01-31T10:31:58;100865.34;;;5.36;72.04
34177;BME280;20450;49.074;9.158;2023-01-31T10:34:31;100869.13;;;5.43;72.41
34177;BME280;20450;49.074;9.158;2023-01-31T10:37:10;100878.84;;;5.61;71.54
34177;BME280;20450;49.074;9.158;2023-01-31T10:39:44;100890.25;;;5.46;71.27
34177;BME280;20450;49.074;9.158;2023-01-31T10:42:21;100885.06;;;5.17;72.04
34177;BME280;20450;49.074;9.158;2023-01-31T10:45:00;100872.19;;;5.03;72.42
34177;BME280;20450;49.074;9.158;2023-01-31T10:47:32;100870.25;;;4.96;72.81
34177;BME280;20450;49.074;9.158;2023-01-31T10:50:01;100873.34;;;5.01;73.35
34177;BME280;20450;49.074;9.158;2023-01-31T10:53:01;100866.59;;;4.97;73.11
34177;BME280;20450;49.074;9.158;2023-01-31T10:55:49;100856.41;;;5.00;73.02
34177;BME280;20450;49.074;9.158;2023-01-31T10:58:25;100844.91;;;5.17;72.65
34177;BME280;20450;49.074;9.158;2023-01-31T11:00:52;100836.19;;;5.33;72.90
34177;BME280;20450;49.074;9.158;2023-01-31T11:03:20;100816.91;;;5.47;71.70
34177;BME280;20450;49.074;9.158;2023-01-31T11:05:49;100805.56;;;5.53;71.51
34177;BME280;20450;49.074;9.158;2023-01-31T11:08:33;100808.78;;;5.56;71.46
34177;BME280;20450;49.074;9.158;2023-01-31T11:11:07;100828.00;;;5.52;71.50
34177;BME280;20450;49.074;9.158;2023-01-31T11:13:38;100818.72;;;5.46;71.81
34177;BME280;20450;49.074;9.158;2023-01-31T11:16:07;100799.81;;;5.48;72.04
34177;BME280;20450;49.074;9.158;2023-01-31T11:18:43;100780.59;;;5.52;71.66
34177;BME280;20450;49.074;9.158;2023-01-31T11:21:19;100769.19;;;5.68;71.12
34177;BME280;20450;49.074;9.158;2023-01-31T11:23:50;100784.47;;;5.75;70.98
34177;BME280;20450;49.074;9.158;2023-01-31T11:26:26;100770.91;;;5.77;70.80
34177;BME280;20450;49.074;9.158;2023-01-31T11:28:57;100775.75;;;5.73;71.65
34177;BME280;20450;49.074;9.158;2023-01-31T11:31:29;100776.03;;;5.88;71.39
34177;BME280;20450;49.074;9.158;2023-01-31T11:34:01;100781.25;;;5.72;71.12
34177;BME280;20450;49.074;9.158;2023-01-31T11:36:31;100781.03;;;5.65;71.34
34177;BME280;20450;49.074;9.158;2023-01-31T11:39:23;100781.88;;;5.66;71.58
34177;BME280;20450;49.074;9.158;2023-01-31T11:41:52;100780.09;;;5.74;71.38
34177;BME280;20450;49.074;9.158;2023-01-31T11:44:20;100771.84;;;5.85;71.14
34177;BME280;20450;49.074;9.158;2023-01-31T11:46:51;100767.84;;;5.89;70.62
34177;BME280;20450;49.074;9.158;2023-01-31T11:49:27;100764.38;;;5.97;70.15
34177;BME280;20450;49.074;9.158;2023-01-31T11:52:00;100763.22;;;5.99;69.89
34177;BME280;20450;49.074;9.158;2023-01-31T11:54:40;100759.47;;;5.92;69.71
34177;BME280;20450;49.074;9.158;2023-01-31T11:57:16;100744.63;;;5.98;70.07
34177;BME280;20450;49.074;9.158;2023-01-31T11:59:49;100739.59;;;6.03;69.43
34177;BME280;20450;49.074;9.158;2023-01-31T12:02:25;100723.56;;;6.11;69.16
34177;BME280;20450;49.074;9.158;2023-01-31T12:04:58;100714.72;;;6.19;68.81
34177;BME280;20450;49.074;9.158;2023-01-31T12:07:27;100713.22;;;6.24;67.93
34177;BME280;20450;49.074;9.158;2023-01-31T12:10:27;100706.84;;;6.25;67.27
34177;BME280;20450;49.074;9.158;2023-01-31T12:12:59;100700.53;;;6.42;67.50
34177;BME280;20450;49.074;9.158;2023-01-31T12:15:55;100698.28;;;6.63;66.07
34177;BME280;20450;49.074;9.158;2023-01-31T12:18:43;100698.88;;;6.49;65.54
34177;BME280;20450;49.074;9.158;2023-01-31T12:21:41;100706.50;;;6.70;65.42
34177;BME280;20450;49.074;9.158;2023-01-31T12:24:27;100710.38;;;6.75;66.05
34177;BME280;20450;49.074;9.158;2023-01-31T12:27:14;100697.75;;;6.60;66.24
34177;BME280;20450;49.074;9.158;2023-01-31T12:30:07;100706.44;;;6.46;65.33
34177;BME280;20450;49.074;9.158;2023-01-31T12:33:16;100692.53;;;6.50;66.37
34177;BME280;20450;49.074;9.158;2023-01-31T12:36:09;100683.47;;;6.51;65.36
34177;BME280;20450;49.074;9.158;2023-01-31T12:39:08;100667.00;;;6.46;65.20
34177;BME280;20450;49.074;9.158;2023-01-31T12:41:49;100674.41;;;6.44;65.54
34177;BME280;20450;49.074;9.158;2023-01-31T12:44:42;100674.31;;;6.28;65.50
34177;BME280;20450;49.074;9.158;2023-01-31T12:47:26;100655.84;;;6.17;64.91
34177;BME280;20450;49.074;9.158;2023-01-31T12:50:26;100664.06;;;6.16;65.21
34177;BME280;20450;49.074;9.158;2023-01-31T12:53:15;100645.63;;;6.13;65.61
34177;BME280;20450;49.074;9.158;2023-01-31T12:56:05;100646.44;;;6.13;65.03
34177;BME280;20450;49.074;9.158;2023-01-31T12:58:54;100655.88;;;6.25;64.96
34177;BME280;20450;49.074;9.158;2023-01-31T13:01:47;100648.88;;;6.40;64.71
34177;BME280;20450;49.074;9.158;2023-01-31T13:04:35;100636.16;;;6.42;64.61
34177;BME280;20450;49.074;9.158;2023-01-31T13:07:13;100606.66;;;6.50;63.76
34177;BME280;20450;49.074;9.158;2023-01-31T13:09:46;100613.00;;;6.49;64.26
34177;BME280;20450;49.074;9.158;2023-01-31T13:12:19;100591.38;;;6.51;64.15
34177;BME280;20450;49.074;9.158;2023-01-31T13:14:50;100599.91;;;6.38;63.71
34177;BME280;20450;49.074;9.158;2023-01-31T13:17:27;100625.06;;;6.37;64.41
34177;BME280;20450;49.074;9.158;2023-01-31T13:19:56;100625.75;;;6.39;64.82
34177;BME280;20450;49.074;9.158;2023-01-31T13:22:30;100636.28;;;6.33;64.57
34177;BME280;20450;49.074;9.158;2023-01-31T13:25:13;100627.38;;;6.24;64.24
34177;BME280;20450;49.074;9.158;2023-01-31T13:27:48;100635.22;;;6.18;64.10
34177;BME280;20450;49.074;9.158;2023-01-31T13:30:30;100624.16;;;6.21;64.03
34177;BME280;20450;49.074;9.158;2023-01-31T13:33:17;100633.91;;;6.22;63.89
34177;BME280;20450;49.074;9.158;2023-01-31T13:36:00;100615.41;;;6.11;64.59
34177;BME280;20450;49.074;9.158;2023-01-31T13:38:37;100612.94;;;6.17;64.60
34177;BME280;20450;49.074;9.158;2023-01-31T13:41:12;100607.09;;;6.22;64.71
34177;BME280;20450;49.074;9.158;2023-01-31T13:43:46;100607.91;;;6.22;64.57
34177;BME280;20450;49.074;9.158;2023-01-31T13:46:18;100610.25;;;6.17;64.08
34177;BME280;20450;49.074;9.158;2023-01-31T13:48:54;100620.47;;;6.14;65.13